createdAt,value
2023-12-27T00:01:48.945Z,3.4
2023-12-27T00:06:55.372Z,3.4
2023-12-27T00:12:01.872Z,3.4
2023-12-27T00:17:08.208Z,3.3
2023-12-27T00:22:14.845Z,3.1
2023-12-27T00:27:21.514Z,3.2
2023-12-27T00:32:28.175Z,3.1
2023-12-27T00:37:33.598Z,3
2023-12-27T00:42:39.844Z,3.1
2023-12-27T00:47:46.023Z,3.2
2023-12-27T00:52:52.226Z,3.1
2023-12-27T00:57:58.444Z,3.1
2023-12-27T01:03:04.667Z,3.1
2023-12-27T01:08:10.908Z,3.1
2023-12-27T01:13:17.126Z,3
2023-12-27T01:18:23.301Z,3
2023-12-27T01:23:29.518Z,2.9
2023-12-27T01:28:35.801Z,2.9
2023-12-27T01:33:41.933Z,2.8
2023-12-27T01:38:48.159Z,2.7
2023-12-27T01:43:54.366Z,2.7
2023-12-27T01:49:00.579Z,2.6
2023-12-27T01:54:06.776Z,2.6
2023-12-27T01:59:12.999Z,2.5
2023-12-27T02:04:19.250Z,2.5
2023-12-27T02:09:25.426Z,2.4
2023-12-27T02:14:31.653Z,2.3
2023-12-27T02:19:37.853Z,2.1
2023-12-27T02:24:44.060Z,2.1
2023-12-27T02:29:50.270Z,2.1
2023-12-27T02:34:56.500Z,2.1
2023-12-27T02:40:02.704Z,2
2023-12-27T02:45:08.991Z,1.9
2023-12-27T02:50:15.251Z,1.8
2023-12-27T02:55:21.517Z,1.7
2023-12-27T03:00:27.806Z,1.6
2023-12-27T03:05:34.076Z,1.6
2023-12-27T03:10:40.324Z,1.5
2023-12-27T03:15:46.601Z,1.5
2023-12-27T03:20:52.915Z,1.4
2023-12-27T03:25:59.134Z,1.3
2023-12-27T03:31:05.398Z,1.2
2023-12-27T03:36:11.666Z,1.2
2023-12-27T03:41:17.960Z,1.2
2023-12-27T03:46:24.225Z,1.2
2023-12-27T03:51:30.622Z,1.1
2023-12-27T03:56:37.033Z,0.9
2023-12-27T04:01:43.437Z,0.9
2023-12-27T04:06:49.861Z,0.9
2023-12-27T04:11:56.261Z,0.9
2023-12-27T04:17:02.694Z,0.9
2023-12-27T04:22:09.086Z,0.9
2023-12-27T04:27:15.482Z,0.9
2023-12-27T04:32:21.880Z,0.8
2023-12-27T04:37:28.292Z,0.7
2023-12-27T04:42:34.700Z,0.8
2023-12-27T04:47:41.120Z,0.7
2023-12-27T04:52:47.527Z,0.7
2023-12-27T04:57:54.204Z,0.6
2023-12-27T05:03:00.896Z,0.6
2023-12-27T05:08:07.485Z,0.5
2023-12-27T05:13:12.969Z,0.5
2023-12-27T05:18:19.166Z,0.5
2023-12-27T05:23:25.375Z,0.5
2023-12-27T05:28:31.584Z,0.4
2023-12-27T05:33:37.789Z,0.4
2023-12-27T05:38:44.012Z,0.5
2023-12-27T05:43:50.216Z,0.4
2023-12-27T05:48:56.501Z,0.4
2023-12-27T05:54:02.742Z,0.3
2023-12-27T05:59:08.917Z,0.3
2023-12-27T06:04:15.154Z,0.2
2023-12-27T06:09:21.347Z,0.3
2023-12-27T06:14:27.577Z,0.3
2023-12-27T06:19:33.771Z,0.3
2023-12-27T06:24:40.024Z,0.4
2023-12-27T06:29:46.200Z,0.4
2023-12-27T06:34:52.486Z,0.4
2023-12-27T06:39:58.628Z,0.4
2023-12-27T06:45:04.833Z,0.3
2023-12-27T06:50:11.075Z,0.2
2023-12-27T06:55:17.255Z,0.2
2023-12-27T07:00:23.496Z,0.1
2023-12-27T07:05:29.696Z,0
2023-12-27T07:10:35.945Z,0
2023-12-27T07:15:42.108Z,0
2023-12-27T07:20:48.394Z,-0.1
2023-12-27T07:25:54.671Z,-0.1
2023-12-27T07:31:00.945Z,-0.1
2023-12-27T07:36:07.230Z,0
2023-12-27T07:41:13.486Z,0.1
2023-12-27T07:46:19.771Z,0.2
2023-12-27T07:51:26.018Z,0.4
2023-12-27T07:56:32.313Z,0.6
2023-12-27T08:01:38.570Z,1.6
2023-12-27T08:06:44.835Z,3.6
2023-12-27T08:11:51.080Z,2.8
2023-12-27T08:16:57.371Z,1.9
2023-12-27T08:22:03.715Z,1.9
2023-12-27T08:27:10.049Z,3.9
2023-12-27T08:32:16.471Z,5.8
2023-12-27T08:37:22.920Z,6.2
2023-12-27T08:42:29.312Z,5.9
2023-12-27T08:47:35.748Z,5.4
2023-12-27T08:52:42.112Z,5.3
2023-12-27T08:57:48.524Z,5.2
2023-12-27T09:02:54.932Z,5.3
2023-12-27T09:08:01.354Z,5.3
2023-12-27T09:13:07.829Z,5.9
2023-12-27T09:18:14.177Z,5.8
2023-12-27T09:23:20.663Z,5.9
2023-12-27T09:28:27.044Z,6.1
2023-12-27T09:33:33.711Z,6.9
2023-12-27T09:38:39.172Z,6.4
2023-12-27T09:43:45.393Z,5.8
2023-12-27T09:48:51.616Z,5.7
2023-12-27T09:53:57.855Z,5.9
2023-12-27T09:59:04.121Z,5.5
2023-12-27T10:04:10.226Z,5.4
2023-12-27T10:09:16.436Z,5.5
2023-12-27T10:14:22.671Z,5.4
2023-12-27T10:19:28.872Z,5.4
2023-12-27T10:24:35.066Z,5.2
2023-12-27T10:29:41.296Z,5.2
2023-12-27T10:34:47.496Z,5.2
2023-12-27T10:39:53.760Z,5
2023-12-27T10:44:59.930Z,5
2023-12-27T10:50:06.124Z,4.8
2023-12-27T10:55:12.322Z,4.8
2023-12-27T11:00:18.523Z,4.8
2023-12-27T11:05:24.821Z,4.8
2023-12-27T11:10:30.961Z,4.9
2023-12-27T11:15:37.178Z,4.9
2023-12-27T11:20:43.395Z,5
2023-12-27T11:25:49.598Z,5.2
2023-12-27T11:30:55.787Z,5.3
2023-12-27T11:36:02.059Z,5.3
2023-12-27T11:41:08.212Z,5.4
2023-12-27T11:46:14.487Z,5.4
2023-12-27T11:51:20.745Z,5.6
2023-12-27T11:56:27.027Z,5.6
2023-12-27T12:01:33.407Z,5.5
2023-12-27T12:06:39.584Z,5.4
2023-12-27T12:11:45.842Z,5.5
2023-12-27T12:16:52.121Z,5.5
2023-12-27T12:21:58.395Z,5.6
2023-12-27T12:27:04.741Z,5.6
2023-12-27T12:32:10.913Z,5.6
2023-12-27T12:37:17.192Z,5.5
2023-12-27T12:42:23.467Z,5.4
2023-12-27T12:47:29.731Z,5.3
2023-12-27T12:52:36.238Z,5.1
2023-12-27T12:57:42.570Z,5
2023-12-27T13:02:48.944Z,5
2023-12-27T13:07:55.361Z,4.9
2023-12-27T13:13:01.752Z,4.8
2023-12-27T13:18:08.171Z,4.8
2023-12-27T13:23:14.582Z,4.7
2023-12-27T13:28:20.953Z,4.7
2023-12-27T13:33:27.374Z,4.6
2023-12-27T13:38:33.783Z,4.6
2023-12-27T13:43:40.182Z,4.5
2023-12-27T13:48:46.615Z,4.4
2023-12-27T13:53:53.023Z,4.3
2023-12-27T13:58:59.679Z,4.3
2023-12-27T14:04:06.326Z,4.3
2023-12-27T14:09:12.959Z,4.2
2023-12-27T14:14:18.437Z,4
2023-12-27T14:19:24.638Z,3.9
2023-12-27T14:24:30.914Z,3.9
2023-12-27T14:29:37.077Z,3.9
2023-12-27T14:34:43.272Z,4
2023-12-27T14:39:49.527Z,4.1
2023-12-27T14:44:55.713Z,4.1
2023-12-27T14:50:01.930Z,4.1
2023-12-27T14:55:08.128Z,4.1
2023-12-27T15:00:14.348Z,4
2023-12-27T15:05:20.571Z,3.9
2023-12-27T15:10:26.775Z,3.9
2023-12-27T15:15:32.985Z,3.9
2023-12-27T15:20:39.196Z,3.9
2023-12-27T15:25:45.392Z,3.8
2023-12-27T15:30:51.611Z,3.7
2023-12-27T15:35:57.821Z,3.8
2023-12-27T15:41:04.027Z,3.7
2023-12-27T15:46:10.249Z,3.6
2023-12-27T15:51:16.469Z,3.6
2023-12-27T15:56:22.683Z,3.5
2023-12-27T16:01:28.897Z,3.5
2023-12-27T16:06:35.100Z,3.5
2023-12-27T16:11:41.318Z,3.5
2023-12-27T16:16:47.517Z,3.5
2023-12-27T16:21:53.794Z,3.5
2023-12-27T16:27:00.058Z,3.6
2023-12-27T16:32:06.442Z,3.6
2023-12-27T16:37:12.642Z,3.6
2023-12-27T16:42:18.858Z,3.6
2023-12-27T16:47:25.205Z,3.5
2023-12-27T16:52:31.396Z,3.3
2023-12-27T16:57:37.684Z,3.3
2023-12-27T17:02:43.936Z,3.3
2023-12-27T17:07:50.216Z,3.4
2023-12-27T17:12:56.481Z,3.5
2023-12-27T17:18:02.788Z,3.7
2023-12-27T17:23:09.072Z,3.9
2023-12-27T17:28:15.425Z,4
2023-12-27T17:33:21.819Z,4
2023-12-27T17:38:28.231Z,3.9
2023-12-27T17:43:34.658Z,4
2023-12-27T17:48:41.069Z,3.9
2023-12-27T17:53:47.494Z,3.9
2023-12-27T17:58:53.890Z,3.8
2023-12-27T18:04:00.360Z,3.8
2023-12-27T18:09:06.801Z,3.8
2023-12-27T18:14:13.190Z,3.8
2023-12-27T18:19:19.529Z,3.9
2023-12-27T18:24:25.942Z,4
2023-12-27T18:29:32.588Z,4.2
2023-12-27T18:34:39.282Z,4.2
2023-12-27T18:39:44.598Z,4.2
2023-12-27T18:44:50.704Z,4.3
2023-12-27T18:49:56.915Z,4.2
2023-12-27T18:55:03.152Z,4.2
2023-12-27T19:00:09.336Z,4
2023-12-27T19:05:15.556Z,3.9
2023-12-27T19:10:21.917Z,3.6
2023-12-27T19:15:28.066Z,3.8
2023-12-27T19:20:34.176Z,3.9
2023-12-27T19:25:40.387Z,3.9
2023-12-27T19:30:46.789Z,4
2023-12-27T19:35:52.809Z,3.9
2023-12-27T19:40:59.026Z,3.9
2023-12-27T19:46:05.230Z,3.9
2023-12-27T19:51:11.460Z,4
2023-12-27T19:56:17.717Z,4
2023-12-27T20:01:23.879Z,4.2
2023-12-27T20:06:30.088Z,4.1
2023-12-27T20:11:36.306Z,4
2023-12-27T20:16:42.515Z,3.9
2023-12-27T20:21:48.735Z,3.7
2023-12-27T20:26:54.957Z,3.7
2023-12-27T20:32:01.159Z,3.7
2023-12-27T20:37:07.363Z,3.8
2023-12-27T20:42:13.578Z,3.8
2023-12-27T20:47:19.847Z,3.8
2023-12-27T20:52:26.196Z,3.8
2023-12-27T20:57:32.610Z,3.6
2023-12-27T21:02:38.696Z,3.5
2023-12-27T21:07:44.951Z,3.3
2023-12-27T21:12:51.184Z,3.3
2023-12-27T21:17:57.536Z,3.2
2023-12-27T21:23:03.733Z,3.2
2023-12-27T21:28:10.019Z,3.2
2023-12-27T21:33:16.267Z,3.1
2023-12-27T21:38:22.535Z,3
2023-12-27T21:43:28.879Z,2.9
2023-12-27T21:48:35.071Z,3
2023-12-27T21:53:41.489Z,3
2023-12-27T21:58:47.906Z,3.2
2023-12-27T22:03:54.302Z,3.4
2023-12-27T22:09:00.727Z,3.6
2023-12-27T22:14:07.122Z,3.6
2023-12-27T22:19:13.670Z,3.6
2023-12-27T22:24:19.956Z,3.7
2023-12-27T22:29:26.356Z,3.9
2023-12-27T22:34:32.776Z,4.3
2023-12-27T22:39:39.194Z,4.4
2023-12-27T22:44:45.606Z,4.5
2023-12-27T22:49:52.018Z,4.5
2023-12-27T22:54:58.439Z,4.5
2023-12-27T23:00:05.074Z,4.8
2023-12-27T23:05:11.725Z,4.7
2023-12-27T23:10:18.361Z,4.8
2023-12-27T23:15:23.842Z,4.9
2023-12-27T23:20:30.049Z,5
2023-12-27T23:25:36.329Z,5.1
2023-12-27T23:30:42.523Z,5.1
2023-12-27T23:35:48.701Z,5.1
2023-12-27T23:40:54.926Z,5.1
2023-12-27T23:46:01.147Z,5
2023-12-27T23:51:07.323Z,5
2023-12-27T23:56:13.619Z,5.1
